createdAt,value
2023-01-29T00:01:51.926Z,1.50
2023-01-29T00:04:18.955Z,1.52
2023-01-29T00:06:45.308Z,1.57
2023-01-29T00:09:12.986Z,1.60
2023-01-29T00:11:39.720Z,1.52
2023-01-29T00:14:06.863Z,1.56
2023-01-29T00:16:33.367Z,1.52
2023-01-29T00:19:02.074Z,1.56
2023-01-29T00:21:30.986Z,1.54
2023-01-29T00:23:58.565Z,1.58
2023-01-29T00:26:25.609Z,1.50
2023-01-29T00:28:52.149Z,1.52
2023-01-29T00:31:24.336Z,1.54
2023-01-29T00:33:51.257Z,1.53
2023-01-29T00:36:19.473Z,1.52
2023-01-29T00:38:54.732Z,1.52
2023-01-29T00:41:40.245Z,1.53
2023-01-29T00:44:25.972Z,1.52
2023-01-29T00:46:52.454Z,1.56
2023-01-29T00:49:18.832Z,1.55
2023-01-29T00:52:05.132Z,1.56
2023-01-29T00:54:33.140Z,1.54
2023-01-29T00:56:59.680Z,1.54
2023-01-29T00:59:26.171Z,1.56
2023-01-29T01:02:10.921Z,1.56
2023-01-29T01:04:37.451Z,1.63
2023-01-29T01:07:03.862Z,1.58
2023-01-29T01:09:48.773Z,1.58
2023-01-29T01:12:15.125Z,1.56
2023-01-29T01:14:43.325Z,1.58
2023-01-29T01:17:09.800Z,1.56
2023-01-29T01:19:36.181Z,1.60
2023-01-29T01:22:04.906Z,1.64
2023-01-29T01:24:32.211Z,1.68
2023-01-29T01:26:58.733Z,1.65
2023-01-29T01:29:25.123Z,1.66
2023-01-29T01:31:53.453Z,1.68
2023-01-29T01:34:20.573Z,1.68
2023-01-29T01:36:46.922Z,1.66
2023-01-29T01:39:13.746Z,1.72
2023-01-29T01:41:40.078Z,1.73
2023-01-29T01:44:06.580Z,1.72
2023-01-29T01:46:37.694Z,1.74
2023-01-29T01:49:15.819Z,1.69
2023-01-29T01:51:48.427Z,1.72
2023-01-29T01:54:25.002Z,1.72
2023-01-29T01:57:09.128Z,1.71
2023-01-29T01:59:40.969Z,1.76
2023-01-29T02:02:26.326Z,1.79
2023-01-29T02:05:11.864Z,1.77
2023-01-29T02:08:02.590Z,1.75
2023-01-29T02:10:32.605Z,1.71
2023-01-29T02:12:58.933Z,1.73
2023-01-29T02:15:25.296Z,1.71
2023-01-29T02:17:52.756Z,1.77
2023-01-29T02:20:26.146Z,1.75
2023-01-29T02:23:03.746Z,1.78
2023-01-29T02:26:15.620Z,1.77
2023-01-29T02:28:53.617Z,1.80
2023-01-29T02:31:33.605Z,1.82
2023-01-29T02:34:22.292Z,1.77
2023-01-29T02:37:02.937Z,1.78
2023-01-29T02:39:36.399Z,1.79
2023-01-29T02:42:06.055Z,1.82
2023-01-29T02:44:47.633Z,1.81
2023-01-29T02:47:22.316Z,1.81
2023-01-29T02:50:00.812Z,1.79
2023-01-29T02:52:35.605Z,1.75
2023-01-29T02:55:11.216Z,1.76
2023-01-29T02:57:41.900Z,1.75
2023-01-29T03:00:17.040Z,1.78
2023-01-29T03:02:53.440Z,1.77
2023-01-29T03:05:28.868Z,1.80
2023-01-29T03:08:02.063Z,1.83
2023-01-29T03:10:47.331Z,1.81
2023-01-29T03:13:39.425Z,1.85
2023-01-29T03:16:24.334Z,1.85
2023-01-29T03:19:00.260Z,1.84
2023-01-29T03:21:55.081Z,1.83
2023-01-29T03:24:45.056Z,1.83
2023-01-29T03:27:33.985Z,1.78
2023-01-29T03:30:20.360Z,1.72
2023-01-29T03:32:51.904Z,1.70
2023-01-29T03:35:33.532Z,1.69
2023-01-29T03:38:00.864Z,1.68
2023-01-29T03:40:33.581Z,1.68
2023-01-29T03:43:11.344Z,1.63
2023-01-29T03:45:45.963Z,1.67
2023-01-29T03:48:33.835Z,1.62
2023-01-29T03:51:15.592Z,1.61
2023-01-29T03:54:04.174Z,1.63
2023-01-29T03:57:31.248Z,1.64
2023-01-29T04:00:08.158Z,1.64
2023-01-29T04:02:55.433Z,1.67
2023-01-29T04:05:27.420Z,1.63
2023-01-29T04:08:02.469Z,1.58
2023-01-29T04:10:29.821Z,1.58
2023-01-29T04:13:04.273Z,1.55
2023-01-29T04:15:36.633Z,1.58
2023-01-29T04:18:03.143Z,1.63
2023-01-29T04:20:29.958Z,1.65
2023-01-29T04:22:56.370Z,1.58
2023-01-29T04:25:29.010Z,1.57
2023-01-29T04:28:12.400Z,1.60
2023-01-29T04:30:59.923Z,1.58
2023-01-29T04:33:40.347Z,1.59
2023-01-29T04:36:28.423Z,1.61
2023-01-29T04:39:17.971Z,1.55
2023-01-29T04:42:05.508Z,1.51
2023-01-29T04:44:57.207Z,1.55
2023-01-29T04:48:17.773Z,1.58
2023-01-29T04:50:54.157Z,1.58
2023-01-29T04:53:41.125Z,1.58
2023-01-29T04:56:33.192Z,1.58
2023-01-29T04:59:05.994Z,1.60
2023-01-29T05:01:34.237Z,1.61
2023-01-29T05:04:04.532Z,1.60
2023-01-29T05:06:32.447Z,1.58
2023-01-29T05:09:00.745Z,1.65
2023-01-29T05:11:27.249Z,1.61
2023-01-29T05:13:54.491Z,1.63
2023-01-29T05:16:26.558Z,1.62
2023-01-29T05:18:53.684Z,1.63
2023-01-29T05:21:23.037Z,1.64
2023-01-29T05:24:11.402Z,1.57
2023-01-29T05:26:56.476Z,1.56
2023-01-29T05:29:22.960Z,1.56
2023-01-29T05:31:49.363Z,1.57
2023-01-29T05:34:15.797Z,1.58
2023-01-29T05:36:42.285Z,1.57
2023-01-29T05:39:08.608Z,1.55
2023-01-29T05:41:35.117Z,1.50
2023-01-29T05:44:01.499Z,1.47
2023-01-29T05:46:27.978Z,1.45
2023-01-29T05:48:54.544Z,1.48
2023-01-29T05:51:21.116Z,1.50
2023-01-29T05:53:47.455Z,1.53
2023-01-29T05:56:13.927Z,1.51
2023-01-29T05:58:40.409Z,1.52
2023-01-29T06:01:14.825Z,1.53
2023-01-29T06:03:41.650Z,1.54
2023-01-29T06:06:08.403Z,1.54
2023-01-29T06:08:34.823Z,1.55
2023-01-29T06:11:01.216Z,1.53
2023-01-29T06:13:27.571Z,1.50
2023-01-29T06:15:54.109Z,1.51
2023-01-29T06:18:20.487Z,1.53
2023-01-29T06:20:46.989Z,1.52
2023-01-29T06:23:13.374Z,1.53
2023-01-29T06:25:39.849Z,1.52
2023-01-29T06:28:06.177Z,1.49
2023-01-29T06:30:32.597Z,1.46
2023-01-29T06:33:01.554Z,1.52
2023-01-29T06:35:28.474Z,1.51
2023-01-29T06:37:56.164Z,1.49
2023-01-29T06:40:22.539Z,1.48
2023-01-29T06:42:48.862Z,1.43
2023-01-29T06:45:15.428Z,1.42
2023-01-29T06:47:41.765Z,1.45
2023-01-29T06:50:08.695Z,1.40
2023-01-29T06:52:35.020Z,1.42
2023-01-29T06:55:01.583Z,1.45
2023-01-29T06:57:29.130Z,1.46
2023-01-29T06:59:55.512Z,1.48
2023-01-29T07:02:21.907Z,1.45
2023-01-29T07:04:48.400Z,1.49
2023-01-29T07:07:14.731Z,1.45
2023-01-29T07:09:42.097Z,1.46
2023-01-29T07:12:09.974Z,1.42
2023-01-29T07:14:36.680Z,1.46
2023-01-29T07:17:03.173Z,1.46
2023-01-29T07:19:29.590Z,1.43
2023-01-29T07:21:55.965Z,1.44
2023-01-29T07:24:22.486Z,1.43
2023-01-29T07:26:48.954Z,1.39
2023-01-29T07:29:15.441Z,1.36
2023-01-29T07:31:41.840Z,1.35
2023-01-29T07:34:08.458Z,1.31
2023-01-29T07:36:34.822Z,1.32
2023-01-29T07:39:01.213Z,1.31
2023-01-29T07:41:27.529Z,1.32
2023-01-29T07:43:54.012Z,1.29
2023-01-29T07:46:20.333Z,1.28
2023-01-29T07:48:46.701Z,1.29
2023-01-29T07:51:13.098Z,1.32
2023-01-29T07:53:39.618Z,1.36
2023-01-29T07:56:06.058Z,1.38
2023-01-29T07:58:33.891Z,1.42
2023-01-29T08:01:05.450Z,1.42
2023-01-29T08:03:32.051Z,1.42
2023-01-29T08:05:58.390Z,1.38
2023-01-29T08:08:25.765Z,1.38
2023-01-29T08:10:52.091Z,1.39
2023-01-29T08:13:18.460Z,1.39
2023-01-29T08:15:45.715Z,1.38
2023-01-29T08:18:13.430Z,1.39
2023-01-29T08:20:40.062Z,1.40
2023-01-29T08:23:13.127Z,1.44
2023-01-29T08:25:39.583Z,1.47
2023-01-29T08:28:06.107Z,1.49
2023-01-29T08:30:34.306Z,1.47
2023-01-29T08:33:01.332Z,1.49
2023-01-29T08:35:27.671Z,1.55
2023-01-29T08:37:59.731Z,1.55
2023-01-29T08:40:27.320Z,1.56
2023-01-29T08:43:01.976Z,1.66
2023-01-29T08:45:30.041Z,1.65
2023-01-29T08:47:56.462Z,1.67
2023-01-29T08:50:22.784Z,1.64
2023-01-29T08:52:49.155Z,1.71
2023-01-29T08:55:15.743Z,1.72
2023-01-29T08:57:42.320Z,1.75
2023-01-29T09:00:10.613Z,1.78
2023-01-29T09:02:38.014Z,1.82
2023-01-29T09:05:05.545Z,1.78
2023-01-29T09:07:32.497Z,1.80
2023-01-29T09:09:58.929Z,1.81
2023-01-29T09:12:25.745Z,1.85
2023-01-29T09:14:52.117Z,1.83
2023-01-29T09:17:18.621Z,1.86
2023-01-29T09:19:45.022Z,1.89
2023-01-29T09:22:11.990Z,1.90
2023-01-29T09:24:38.579Z,1.93
2023-01-29T09:27:06.047Z,1.93
2023-01-29T09:29:35.435Z,1.98
2023-01-29T09:32:03.313Z,1.96
2023-01-29T09:34:29.699Z,1.97
2023-01-29T09:36:56.040Z,1.96
2023-01-29T09:39:22.400Z,1.96
2023-01-29T09:42:27.393Z,1.99
2023-01-29T09:45:13.115Z,1.93
2023-01-29T09:47:39.768Z,1.91
2023-01-29T09:50:19.999Z,1.95
2023-01-29T09:52:53.128Z,1.96
2023-01-29T09:55:27.284Z,1.96
2023-01-29T09:57:57.424Z,2.01
2023-01-29T10:00:35.273Z,1.97
2023-01-29T10:03:09.596Z,2.00
2023-01-29T10:05:57.583Z,1.98
2023-01-29T10:08:48.783Z,1.99
2023-01-29T10:11:27.319Z,1.95
2023-01-29T10:14:13.581Z,1.97
2023-01-29T10:16:59.123Z,2.01
2023-01-29T10:19:42.821Z,2.02
2023-01-29T10:22:35.917Z,2.00
2023-01-29T10:25:22.855Z,2.04
2023-01-29T10:27:53.509Z,2.05
2023-01-29T10:30:25.747Z,2.06
2023-01-29T10:32:53.360Z,2.09
2023-01-29T10:35:32.197Z,2.09
2023-01-29T10:38:12.301Z,2.08
2023-01-29T10:40:46.857Z,2.10
2023-01-29T10:43:23.589Z,2.12
2023-01-29T10:46:08.332Z,2.12
2023-01-29T10:48:46.916Z,2.13
2023-01-29T10:51:42.004Z,2.12
2023-01-29T10:54:20.426Z,2.10
2023-01-29T10:57:16.058Z,2.13
2023-01-29T11:00:19.231Z,2.17
2023-01-29T11:02:48.516Z,2.17
2023-01-29T11:05:38.612Z,2.19
2023-01-29T11:08:19.674Z,2.17
2023-01-29T11:11:01.922Z,2.16
2023-01-29T11:13:34.728Z,2.18
2023-01-29T11:16:01.055Z,2.18
2023-01-29T11:18:47.533Z,2.19
2023-01-29T11:21:14.606Z,2.19
2023-01-29T11:23:41.021Z,2.26
2023-01-29T11:26:11.287Z,2.28
2023-01-29T11:28:46.004Z,2.32
2023-01-29T11:31:26.013Z,2.30
2023-01-29T11:34:02.183Z,2.28
2023-01-29T11:36:37.169Z,2.31
2023-01-29T11:39:18.435Z,2.28
2023-01-29T11:41:47.116Z,2.27
2023-01-29T11:44:27.870Z,2.27
2023-01-29T11:46:55.023Z,2.28
2023-01-29T11:49:52.453Z,2.32
2023-01-29T11:52:22.371Z,2.38
2023-01-29T11:55:02.216Z,2.38
2023-01-29T11:57:30.955Z,2.37
2023-01-29T12:00:29.818Z,2.41
2023-01-29T12:03:02.064Z,2.40
2023-01-29T12:05:28.715Z,2.42
2023-01-29T12:07:59.822Z,2.48
2023-01-29T12:10:41.406Z,2.48
2023-01-29T12:13:10.790Z,2.46
2023-01-29T12:15:38.811Z,2.52
2023-01-29T12:18:17.488Z,2.54
2023-01-29T12:20:55.094Z,2.57
2023-01-29T12:23:36.837Z,2.63
2023-01-29T12:26:15.749Z,2.57
2023-01-29T12:28:52.064Z,2.57
2023-01-29T12:31:36.751Z,2.56
2023-01-29T12:34:21.977Z,2.57
2023-01-29T12:36:53.593Z,2.57
2023-01-29T12:39:20.783Z,2.60
2023-01-29T12:41:54.635Z,2.57
2023-01-29T12:44:30.238Z,2.59
2023-01-29T12:47:00.837Z,2.64
2023-01-29T12:49:34.504Z,2.65
2023-01-29T12:52:09.443Z,2.60
2023-01-29T12:54:43.572Z,2.63
2023-01-29T12:57:25.981Z,2.64
2023-01-29T13:00:02.572Z,2.65
2023-01-29T13:02:37.768Z,2.66
2023-01-29T13:05:48.739Z,2.66
2023-01-29T13:08:30.533Z,2.67
2023-01-29T13:11:01.510Z,2.70
2023-01-29T13:13:44.453Z,2.72
2023-01-29T13:16:13.723Z,2.75
2023-01-29T13:18:45.134Z,2.73
2023-01-29T13:21:25.299Z,2.68
2023-01-29T13:23:55.577Z,2.74
2023-01-29T13:26:23.187Z,2.74
2023-01-29T13:28:51.130Z,2.77
2023-01-29T13:31:37.670Z,2.72
2023-01-29T13:34:03.984Z,2.76
2023-01-29T13:36:31.757Z,2.76
2023-01-29T13:39:05.216Z,2.75
2023-01-29T13:41:34.456Z,2.80
2023-01-29T13:44:01.073Z,2.77
2023-01-29T13:46:28.383Z,2.80
2023-01-29T13:48:58.107Z,2.78
2023-01-29T13:51:32.091Z,2.80
2023-01-29T13:54:07.516Z,2.76
2023-01-29T13:56:33.840Z,2.76
2023-01-29T13:59:01.139Z,2.74
2023-01-29T14:01:49.406Z,2.71
2023-01-29T14:04:18.740Z,2.70
2023-01-29T14:06:48.740Z,2.70
2023-01-29T14:09:53.881Z,2.73
2023-01-29T14:12:22.945Z,2.72
2023-01-29T14:14:49.298Z,2.67
2023-01-29T14:17:17.446Z,2.69
2023-01-29T14:19:49.734Z,2.68
2023-01-29T14:22:22.851Z,2.72
2023-01-29T14:24:55.532Z,2.75
2023-01-29T14:27:25.547Z,2.73
2023-01-29T14:29:59.141Z,2.71
2023-01-29T14:32:26.152Z,2.74
2023-01-29T14:35:03.768Z,2.77
2023-01-29T14:37:36.445Z,2.75
2023-01-29T14:40:12.084Z,2.74
2023-01-29T14:43:04.581Z,2.72
2023-01-29T14:45:33.056Z,2.69
2023-01-29T14:48:37.555Z,2.72
2023-01-29T14:51:20.325Z,2.69
2023-01-29T14:54:04.639Z,2.65
2023-01-29T14:56:35.368Z,2.64
2023-01-29T14:59:16.584Z,2.64
2023-01-29T15:01:54.930Z,2.65
2023-01-29T15:04:33.473Z,2.64
2023-01-29T15:07:05.768Z,2.61
2023-01-29T15:09:42.480Z,2.63
2023-01-29T15:12:20.915Z,2.63
2023-01-29T15:15:01.876Z,2.64
2023-01-29T15:17:33.023Z,2.66
2023-01-29T15:19:59.486Z,2.63
2023-01-29T15:22:26.181Z,2.57
2023-01-29T15:25:07.842Z,2.57
2023-01-29T15:27:34.630Z,2.59
2023-01-29T15:30:04.505Z,2.60
2023-01-29T15:32:39.627Z,2.59
2023-01-29T15:35:18.048Z,2.63
2023-01-29T15:38:05.652Z,2.59
2023-01-29T15:40:32.622Z,2.56
2023-01-29T15:42:59.116Z,2.56
2023-01-29T15:45:33.335Z,2.55
2023-01-29T15:48:13.668Z,2.55
2023-01-29T15:50:42.230Z,2.56
2023-01-29T15:53:17.238Z,2.53
2023-01-29T15:55:44.569Z,2.55
2023-01-29T15:58:24.109Z,2.53
2023-01-29T16:00:55.771Z,2.50
2023-01-29T16:03:24.686Z,2.52
2023-01-29T16:05:52.678Z,2.50
2023-01-29T16:08:21.931Z,2.46
2023-01-29T16:10:52.607Z,2.40
2023-01-29T16:13:23.431Z,2.38
2023-01-29T16:16:01.236Z,2.40
2023-01-29T16:18:37.446Z,2.45
2023-01-29T16:21:12.692Z,2.39
2023-01-29T16:23:45.754Z,2.38
2023-01-29T16:26:17.234Z,2.40
2023-01-29T16:28:45.268Z,2.36
2023-01-29T16:31:14.001Z,2.33
2023-01-29T16:33:43.334Z,2.38
2023-01-29T16:36:21.533Z,2.38
2023-01-29T16:38:55.336Z,2.36
2023-01-29T16:41:21.628Z,2.38
2023-01-29T16:43:51.465Z,2.39
2023-01-29T16:46:24.122Z,2.39
2023-01-29T16:48:50.944Z,2.37
2023-01-29T16:51:28.370Z,2.39
2023-01-29T16:54:00.080Z,2.39
2023-01-29T16:56:30.258Z,2.37
2023-01-29T16:58:57.338Z,2.31
2023-01-29T17:01:26.813Z,2.32
2023-01-29T17:04:21.064Z,2.28
2023-01-29T17:06:56.189Z,2.29
2023-01-29T17:09:35.093Z,2.21
2023-01-29T17:12:20.149Z,2.20
2023-01-29T17:14:55.656Z,2.17
2023-01-29T17:17:28.492Z,2.16
2023-01-29T17:19:54.831Z,2.13
2023-01-29T17:22:21.200Z,2.13
2023-01-29T17:24:51.305Z,2.10
2023-01-29T17:27:22.736Z,2.09
2023-01-29T17:29:49.316Z,2.04
2023-01-29T17:32:18.744Z,1.97
2023-01-29T17:34:46.701Z,1.94
2023-01-29T17:37:15.195Z,1.95
2023-01-29T17:39:43.082Z,1.95
2023-01-29T17:42:15.171Z,1.91
2023-01-29T17:44:42.856Z,1.90
2023-01-29T17:47:14.867Z,1.90
2023-01-29T17:49:41.946Z,1.87
2023-01-29T17:52:08.755Z,1.86
2023-01-29T17:54:35.145Z,1.79
2023-01-29T17:57:01.762Z,1.78
2023-01-29T17:59:31.287Z,1.77
2023-01-29T18:01:57.980Z,1.75
2023-01-29T18:04:24.429Z,1.75
2023-01-29T18:06:51.908Z,1.78
2023-01-29T18:09:21.706Z,1.79
2023-01-29T18:11:49.426Z,1.81
2023-01-29T18:14:16.423Z,1.81
2023-01-29T18:16:44.641Z,1.82
2023-01-29T18:19:22.065Z,1.80
2023-01-29T18:21:49.549Z,1.80
2023-01-29T18:24:16.483Z,1.77
2023-01-29T18:26:42.964Z,1.78
2023-01-29T18:29:09.521Z,1.78
2023-01-29T18:31:35.903Z,1.80
2023-01-29T18:34:02.390Z,1.83
2023-01-29T18:36:28.849Z,1.80
2023-01-29T18:38:56.790Z,1.79
2023-01-29T18:41:23.149Z,1.84
2023-01-29T18:43:51.690Z,1.82
2023-01-29T18:46:18.854Z,1.84
2023-01-29T18:48:45.449Z,1.83
2023-01-29T18:51:11.802Z,1.83
2023-01-29T18:53:38.195Z,1.79
2023-01-29T18:56:07.396Z,1.80
2023-01-29T18:58:38.390Z,1.80
2023-01-29T19:01:09.380Z,1.83
2023-01-29T19:03:36.584Z,1.83
2023-01-29T19:06:06.040Z,1.84
2023-01-29T19:08:32.632Z,1.83
2023-01-29T19:11:02.295Z,1.81
2023-01-29T19:13:32.864Z,1.78
2023-01-29T19:15:59.202Z,1.77
2023-01-29T19:18:26.659Z,1.77
2023-01-29T19:20:53.551Z,1.81
2023-01-29T19:23:21.203Z,1.84
2023-01-29T19:25:47.805Z,1.81
2023-01-29T19:28:14.578Z,1.83
2023-01-29T19:30:40.971Z,1.83
2023-01-29T19:33:07.363Z,1.83
2023-01-29T19:35:33.972Z,1.83
2023-01-29T19:38:01.020Z,1.85
2023-01-29T19:40:27.394Z,1.84
2023-01-29T19:42:55.697Z,1.88
2023-01-29T19:45:49.407Z,1.84
2023-01-29T19:48:14.406Z,1.83
2023-01-29T19:50:40.768Z,1.85
2023-01-29T19:53:07.137Z,1.84
2023-01-29T19:55:33.489Z,1.78
2023-01-29T19:57:59.895Z,1.81
2023-01-29T20:00:26.370Z,1.80
2023-01-29T20:02:52.809Z,1.84
2023-01-29T20:05:20.337Z,1.86
2023-01-29T20:07:46.909Z,1.89
2023-01-29T20:10:17.359Z,1.85
2023-01-29T20:12:44.965Z,1.83
2023-01-29T20:15:12.593Z,1.84
2023-01-29T20:17:39.244Z,1.84
2023-01-29T20:20:06.717Z,1.84
2023-01-29T20:22:33.105Z,1.88
2023-01-29T20:24:59.456Z,1.89
2023-01-29T20:27:26.041Z,1.87
2023-01-29T20:29:52.630Z,1.89
2023-01-29T20:32:19.131Z,1.93
2023-01-29T20:34:49.480Z,1.90
2023-01-29T20:37:15.889Z,1.90
2023-01-29T20:39:42.234Z,1.89
2023-01-29T20:42:08.604Z,1.92
2023-01-29T20:44:34.923Z,1.93
2023-01-29T20:47:02.613Z,2.01
2023-01-29T20:49:29.023Z,2.03
2023-01-29T20:51:55.580Z,2.04
2023-01-29T20:54:22.084Z,2.00
2023-01-29T20:56:48.916Z,1.99
2023-01-29T20:59:15.497Z,1.99
2023-01-29T21:01:43.070Z,2.03
2023-01-29T21:04:09.413Z,2.04
2023-01-29T21:06:35.794Z,2.04
2023-01-29T21:09:02.169Z,2.06
2023-01-29T21:11:28.655Z,2.06
2023-01-29T21:13:57.612Z,2.08
2023-01-29T21:16:26.351Z,2.09
2023-01-29T21:18:56.972Z,2.09
2023-01-29T21:21:23.535Z,2.10
2023-01-29T21:23:49.871Z,2.14
2023-01-29T21:26:16.314Z,2.14
2023-01-29T21:28:42.672Z,2.15
2023-01-29T21:31:14.323Z,2.11
2023-01-29T21:33:40.688Z,2.14
2023-01-29T21:36:08.357Z,2.19
2023-01-29T21:38:34.708Z,2.21
2023-01-29T21:41:03.401Z,2.23
2023-01-29T21:43:29.963Z,2.23
2023-01-29T21:46:03.788Z,2.27
2023-01-29T21:48:30.886Z,2.27
2023-01-29T21:50:57.301Z,2.27
2023-01-29T21:53:23.643Z,2.27
2023-01-29T21:55:50.181Z,2.33
2023-01-29T21:58:16.516Z,2.32
2023-01-29T22:00:42.935Z,2.33
2023-01-29T22:03:09.294Z,2.38
2023-01-29T22:05:35.692Z,2.40
2023-01-29T22:08:02.407Z,2.40
2023-01-29T22:10:30.534Z,2.40
2023-01-29T22:12:59.085Z,2.39
2023-01-29T22:15:25.457Z,2.37
2023-01-29T22:17:51.785Z,2.37
2023-01-29T22:20:19.076Z,2.30
2023-01-29T22:22:45.646Z,2.30
2023-01-29T22:25:12.065Z,2.32
2023-01-29T22:27:38.663Z,2.28
2023-01-29T22:30:06.177Z,2.28
2023-01-29T22:32:33.131Z,2.31
2023-01-29T22:34:59.585Z,2.32
2023-01-29T22:37:25.983Z,2.28
2023-01-29T22:39:52.364Z,2.26
2023-01-29T22:42:20.393Z,2.26
2023-01-29T22:44:48.027Z,2.24
2023-01-29T22:47:14.403Z,2.26
2023-01-29T22:49:40.792Z,2.26
2023-01-29T22:52:10.053Z,2.24
2023-01-29T22:54:40.863Z,2.24
2023-01-29T22:57:13.480Z,2.26
2023-01-29T22:59:40.360Z,2.25
2023-01-29T23:02:07.836Z,2.24
2023-01-29T23:04:34.184Z,2.31
2023-01-29T23:07:00.672Z,2.25
2023-01-29T23:09:27.154Z,2.28
2023-01-29T23:11:53.549Z,2.30
2023-01-29T23:14:20.032Z,2.34
2023-01-29T23:16:46.408Z,2.35
2023-01-29T23:19:12.792Z,2.33
2023-01-29T23:21:39.804Z,2.36
2023-01-29T23:24:07.873Z,2.38
2023-01-29T23:26:53.036Z,2.35
2023-01-29T23:29:19.647Z,2.37
2023-01-29T23:31:46.119Z,2.40
2023-01-29T23:34:13.576Z,2.40
2023-01-29T23:36:39.976Z,2.41
2023-01-29T23:39:06.703Z,2.45
2023-01-29T23:41:33.464Z,2.50
2023-01-29T23:43:59.794Z,2.49
2023-01-29T23:46:26.223Z,2.52
2023-01-29T23:48:52.602Z,2.52
2023-01-29T23:51:19.130Z,2.52
2023-01-29T23:53:45.478Z,2.60
2023-01-29T23:56:11.861Z,2.60
2023-01-29T23:58:38.245Z,2.61
